createdAt,value
2022-10-09T00:00:14.438Z,0.22
2022-10-09T00:00:30.955Z,0.20
2022-10-09T00:00:49.875Z,0.20
2022-10-09T00:01:07.430Z,0.20
2022-10-09T00:01:25.638Z,0.22
2022-10-09T00:01:42.127Z,0.20
2022-10-09T00:01:58.714Z,0.20
2022-10-09T00:02:16.254Z,0.28
2022-10-09T00:02:32.837Z,0.30
2022-10-09T00:02:49.616Z,0.20
2022-10-09T00:03:06.435Z,0.30
2022-10-09T00:03:22.949Z,0.40
2022-10-09T00:03:40.588Z,0.50
2022-10-09T00:03:58.443Z,0.40
2022-10-09T00:04:14.953Z,0.22
2022-10-09T00:04:31.486Z,0.30
2022-10-09T00:04:48.083Z,0.30
2022-10-09T00:05:05.055Z,0.25
2022-10-09T00:05:23.623Z,0.30
2022-10-09T00:05:40.585Z,0.30
2022-10-09T00:05:58.150Z,0.30
2022-10-09T00:06:15.558Z,0.25
2022-10-09T00:06:32.955Z,0.30
2022-10-09T00:06:49.543Z,0.22
2022-10-09T00:07:07.069Z,0.20
2022-10-09T00:07:23.575Z,0.20
2022-10-09T00:07:40.100Z,0.28
2022-10-09T00:07:56.599Z,0.30
2022-10-09T00:08:13.190Z,0.17
2022-10-09T00:08:30.141Z,0.20
2022-10-09T00:08:47.737Z,0.30
2022-10-09T00:09:04.651Z,0.30
2022-10-09T00:09:21.149Z,0.30
2022-10-09T00:09:37.603Z,0.30
2022-10-09T00:09:54.108Z,0.28
2022-10-09T00:10:10.612Z,0.20
2022-10-09T00:10:28.297Z,0.38
2022-10-09T00:10:44.982Z,0.30
2022-10-09T00:11:04.556Z,0.20
2022-10-09T00:11:22.511Z,0.60
2022-10-09T00:11:38.985Z,0.60
2022-10-09T00:11:56.445Z,0.40
2022-10-09T00:12:13.193Z,0.30
2022-10-09T00:12:29.734Z,0.24
2022-10-09T00:12:46.744Z,0.20
2022-10-09T00:13:03.496Z,0.32
2022-10-09T00:13:21.373Z,0.50
2022-10-09T00:13:39.130Z,0.40
2022-10-09T00:13:56.224Z,0.47
2022-10-09T00:14:12.746Z,0.50
2022-10-09T00:14:29.249Z,0.40
2022-10-09T00:14:45.788Z,0.30
2022-10-09T00:15:02.289Z,0.30
2022-10-09T00:15:19.797Z,0.30
2022-10-09T00:15:37.957Z,0.40
2022-10-09T00:15:54.462Z,0.35
2022-10-09T00:16:12.206Z,0.22
2022-10-09T00:16:29.054Z,0.30
2022-10-09T00:16:46.647Z,0.30
2022-10-09T00:17:03.284Z,0.30
2022-10-09T00:17:19.853Z,0.20
2022-10-09T00:17:36.391Z,0.30
2022-10-09T00:17:52.879Z,0.30
2022-10-09T00:18:09.985Z,0.30
2022-10-09T00:18:27.492Z,0.47
2022-10-09T00:18:44.309Z,0.57
2022-10-09T00:19:00.864Z,0.38
2022-10-09T00:19:17.353Z,0.57
2022-10-09T00:19:33.863Z,0.55
2022-10-09T00:19:50.319Z,0.28
2022-10-09T00:20:08.232Z,0.30
2022-10-09T00:20:24.783Z,0.50
2022-10-09T00:20:41.934Z,0.50
2022-10-09T00:20:58.415Z,0.60
2022-10-09T00:21:16.764Z,0.40
2022-10-09T00:21:34.706Z,0.40
2022-10-09T00:21:51.188Z,0.30
2022-10-09T00:22:07.687Z,0.22
2022-10-09T00:22:24.333Z,0.40
2022-10-09T00:22:40.859Z,0.38
2022-10-09T00:22:57.335Z,0.30
2022-10-09T00:23:17.406Z,0.30
2022-10-09T00:23:33.942Z,0.30
2022-10-09T00:23:51.115Z,0.43
2022-10-09T00:24:07.770Z,0.40
2022-10-09T00:24:24.267Z,0.30
2022-10-09T00:24:43.101Z,0.43
2022-10-09T00:24:59.595Z,0.40
2022-10-09T00:25:16.121Z,0.40
2022-10-09T00:25:32.719Z,0.30
2022-10-09T00:25:52.978Z,0.30
2022-10-09T00:26:09.530Z,0.20
2022-10-09T00:26:27.090Z,0.20
2022-10-09T00:26:43.587Z,0.30
2022-10-09T00:27:02.506Z,0.40
2022-10-09T00:27:19.228Z,0.40
2022-10-09T00:27:35.744Z,0.32
2022-10-09T00:27:52.359Z,0.40
2022-10-09T00:28:09.838Z,0.30
2022-10-09T00:28:28.370Z,0.30
2022-10-09T00:28:45.382Z,0.20
2022-10-09T00:29:01.990Z,0.40
2022-10-09T00:29:18.549Z,0.47
2022-10-09T00:29:35.118Z,0.30
2022-10-09T00:29:52.727Z,0.30
2022-10-09T00:30:09.653Z,0.25
2022-10-09T00:30:26.559Z,0.30
2022-10-09T00:30:43.102Z,0.30
2022-10-09T00:30:59.628Z,0.40
2022-10-09T00:31:16.580Z,0.50
2022-10-09T00:31:34.239Z,0.40
2022-10-09T00:31:50.812Z,0.20
2022-10-09T00:32:07.335Z,0.40
2022-10-09T00:32:23.871Z,0.50
2022-10-09T00:32:40.360Z,0.40
2022-10-09T00:32:57.835Z,0.40
2022-10-09T00:33:14.607Z,0.43
2022-10-09T00:33:31.091Z,0.25
2022-10-09T00:33:47.612Z,0.30
2022-10-09T00:34:04.194Z,0.30
2022-10-09T00:34:21.709Z,0.30
2022-10-09T00:34:38.474Z,0.20
2022-10-09T00:34:54.962Z,0.35
2022-10-09T00:35:11.461Z,0.40
2022-10-09T00:35:27.945Z,0.32
2022-10-09T00:35:44.454Z,0.45
2022-10-09T00:36:02.397Z,0.30
2022-10-09T00:36:21.552Z,0.20
2022-10-09T00:36:38.066Z,0.45
2022-10-09T00:36:54.570Z,0.35
2022-10-09T00:37:11.097Z,0.30
2022-10-09T00:37:28.363Z,0.30
2022-10-09T00:37:46.169Z,0.30
2022-10-09T00:38:02.679Z,0.30
2022-10-09T00:38:19.167Z,0.43
2022-10-09T00:38:35.686Z,0.22
2022-10-09T00:38:53.393Z,0.30
2022-10-09T00:39:10.881Z,0.50
2022-10-09T00:39:27.523Z,0.40
2022-10-09T00:39:44.019Z,0.30
2022-10-09T00:40:00.645Z,0.30
2022-10-09T00:40:17.301Z,0.35
2022-10-09T00:40:33.816Z,0.30
2022-10-09T00:40:51.323Z,0.20
2022-10-09T00:41:08.118Z,0.20
2022-10-09T00:41:25.541Z,0.20
2022-10-09T00:41:42.036Z,0.20
2022-10-09T00:41:59.498Z,0.30
2022-10-09T00:42:15.983Z,0.30
2022-10-09T00:42:32.543Z,0.30
2022-10-09T00:42:55.421Z,0.30
2022-10-09T00:43:15.047Z,0.30
2022-10-09T00:43:48.000Z,0.30
2022-10-09T00:44:24.509Z,0.20
2022-10-09T00:44:47.690Z,0.40
2022-10-09T00:45:04.770Z,0.60
2022-10-09T00:45:22.524Z,0.30
2022-10-09T00:45:39.701Z,0.20
2022-10-09T00:45:56.603Z,0.17
2022-10-09T00:46:19.346Z,0.22
2022-10-09T00:46:39.583Z,0.20
2022-10-09T00:46:56.113Z,0.20
2022-10-09T00:47:15.090Z,0.20
2022-10-09T00:47:35.371Z,0.10
2022-10-09T00:47:53.343Z,0.10
2022-10-09T00:48:10.816Z,0.28
2022-10-09T00:48:27.374Z,0.40
2022-10-09T00:48:43.869Z,0.30
2022-10-09T00:49:06.078Z,0.20
2022-10-09T00:49:26.017Z,0.40
2022-10-09T00:49:42.512Z,0.25
2022-10-09T00:50:02.320Z,0.20
2022-10-09T00:50:22.813Z,0.20
2022-10-09T00:50:41.215Z,0.22
2022-10-09T00:50:58.647Z,0.30
2022-10-09T00:51:16.130Z,0.20
2022-10-09T00:51:33.655Z,0.20
2022-10-09T00:51:50.913Z,0.10
2022-10-09T00:52:07.703Z,0.20
2022-10-09T00:52:25.880Z,0.50
2022-10-09T00:52:44.331Z,0.45
2022-10-09T00:53:01.206Z,0.20
2022-10-09T00:53:19.497Z,0.20
2022-10-09T00:53:36.080Z,0.20
2022-10-09T00:53:52.779Z,0.20
2022-10-09T00:54:12.637Z,0.20
2022-10-09T00:54:31.620Z,0.22
2022-10-09T00:54:48.129Z,0.32
2022-10-09T00:55:05.716Z,0.30
2022-10-09T00:55:22.767Z,0.20
2022-10-09T00:55:40.628Z,0.30
2022-10-09T00:55:57.260Z,0.20
2022-10-09T00:56:13.760Z,0.13
2022-10-09T00:56:30.495Z,0.20
2022-10-09T00:56:47.044Z,0.20
2022-10-09T00:57:04.645Z,0.20
2022-10-09T00:57:21.217Z,0.13
2022-10-09T00:57:38.797Z,0.28
2022-10-09T00:57:55.861Z,0.22
2022-10-09T00:58:13.002Z,0.20
2022-10-09T00:58:29.527Z,0.20
2022-10-09T00:58:52.448Z,0.20
2022-10-09T00:59:09.435Z,0.20
2022-10-09T00:59:26.610Z,0.40
2022-10-09T00:59:43.207Z,0.40
2022-10-09T01:00:00.457Z,0.30
2022-10-09T01:00:18.115Z,0.30
2022-10-09T01:00:34.605Z,0.35
2022-10-09T01:00:51.175Z,0.30
2022-10-09T01:01:07.704Z,0.40
2022-10-09T01:01:24.265Z,0.40
2022-10-09T01:01:41.262Z,0.30
2022-10-09T01:01:59.017Z,0.30
2022-10-09T01:02:15.720Z,0.30
2022-10-09T01:02:32.300Z,0.20
2022-10-09T01:02:49.141Z,0.40
2022-10-09T01:03:06.173Z,0.45
2022-10-09T01:03:22.655Z,0.32
2022-10-09T01:03:40.570Z,0.30
2022-10-09T01:03:57.058Z,0.30
2022-10-09T01:04:13.732Z,0.30
2022-10-09T01:04:30.352Z,0.30
2022-10-09T01:04:46.851Z,0.30
2022-10-09T01:05:04.852Z,0.30
2022-10-09T01:05:25.312Z,0.40
2022-10-09T01:05:44.478Z,0.40
2022-10-09T01:06:07.598Z,0.22
2022-10-09T01:06:29.786Z,0.30
2022-10-09T01:06:56.440Z,0.52
2022-10-09T01:07:17.869Z,0.50
2022-10-09T01:07:38.486Z,0.38
2022-10-09T01:07:58.967Z,0.30
2022-10-09T01:08:18.081Z,0.40
2022-10-09T01:08:38.132Z,0.45
2022-10-09T01:09:00.525Z,0.47
2022-10-09T01:09:19.253Z,0.50
2022-10-09T01:09:39.328Z,0.40
2022-10-09T01:10:26.913Z,0.30
2022-10-09T01:10:51.283Z,0.45
2022-10-09T01:11:12.484Z,0.22
2022-10-09T01:11:36.130Z,0.20
2022-10-09T01:11:59.273Z,0.38
2022-10-09T01:12:20.337Z,0.40
2022-10-09T01:12:40.375Z,0.30
2022-10-09T01:13:02.883Z,0.25
2022-10-09T01:13:22.448Z,0.47
2022-10-09T01:13:42.693Z,0.60
2022-10-09T01:14:04.711Z,0.35
2022-10-09T01:14:25.247Z,0.30
2022-10-09T01:14:44.628Z,0.40
2022-10-09T01:15:07.734Z,0.30
2022-10-09T01:16:54.879Z,0.50
2022-10-09T01:18:24.077Z,0.50
2022-10-09T01:18:43.629Z,0.40
2022-10-09T01:19:25.165Z,0.50
2022-10-09T01:20:08.172Z,0.40
2022-10-09T01:21:15.341Z,0.50
2022-10-09T01:21:35.093Z,0.30
2022-10-09T01:21:56.733Z,0.40
2022-10-09T01:24:21.258Z,0.50
2022-10-09T01:24:38.914Z,0.22
2022-10-09T01:24:57.377Z,0.22
2022-10-09T01:25:16.140Z,0.38
2022-10-09T01:25:35.550Z,0.40
2022-10-09T01:25:59.499Z,0.32
2022-10-09T01:26:26.851Z,0.40
2022-10-09T01:26:49.600Z,0.38
2022-10-09T01:27:08.670Z,0.65
2022-10-09T01:27:26.046Z,0.50
2022-10-09T01:27:43.560Z,0.52
2022-10-09T01:28:01.128Z,0.40
2022-10-09T01:28:18.641Z,0.60
2022-10-09T01:28:36.161Z,0.40
2022-10-09T01:28:55.773Z,0.50
2022-10-09T01:29:13.354Z,0.70
2022-10-09T01:29:33.785Z,0.40
2022-10-09T01:29:52.439Z,0.60
2022-10-09T01:30:10.651Z,0.55
2022-10-09T01:30:27.410Z,0.50
2022-10-09T01:30:44.069Z,0.60
2022-10-09T01:31:02.678Z,0.55
2022-10-09T01:31:21.359Z,0.40
2022-10-09T01:31:40.147Z,0.52
2022-10-09T01:31:57.249Z,0.77
2022-10-09T01:32:17.289Z,0.70
2022-10-09T01:32:36.241Z,0.50
2022-10-09T01:32:53.500Z,0.43
2022-10-09T01:33:10.231Z,0.47
2022-10-09T01:33:26.986Z,0.52
2022-10-09T01:33:44.359Z,0.60
2022-10-09T01:34:02.320Z,0.50
2022-10-09T01:34:20.161Z,0.47
2022-10-09T01:34:38.142Z,0.63
2022-10-09T01:34:55.061Z,0.80
2022-10-09T01:35:12.546Z,0.50
2022-10-09T01:35:30.338Z,0.57
2022-10-09T01:35:47.160Z,0.55
2022-10-09T01:36:04.450Z,0.55
2022-10-09T01:36:22.437Z,0.55
2022-10-09T01:36:39.848Z,0.40
2022-10-09T01:36:57.486Z,0.25
2022-10-09T01:37:15.930Z,0.43
2022-10-09T01:37:33.823Z,0.70
2022-10-09T01:37:51.311Z,0.60
2022-10-09T01:38:08.147Z,0.60
2022-10-09T01:38:24.858Z,0.38
2022-10-09T01:38:43.237Z,0.30
2022-10-09T01:39:01.025Z,0.40
2022-10-09T01:39:19.865Z,0.30
2022-10-09T01:39:37.183Z,0.32
2022-10-09T01:39:54.046Z,0.40
2022-10-09T01:40:12.499Z,0.40
2022-10-09T01:40:30.207Z,0.45
2022-10-09T01:40:46.834Z,0.30
2022-10-09T01:41:04.318Z,0.40
2022-10-09T01:41:20.841Z,0.40
2022-10-09T01:41:37.668Z,0.30
2022-10-09T01:41:56.866Z,0.40
2022-10-09T01:42:14.267Z,0.50
2022-10-09T01:42:31.485Z,0.30
2022-10-09T01:42:48.291Z,0.40
2022-10-09T01:43:05.527Z,0.45
2022-10-09T01:43:22.992Z,0.40
2022-10-09T01:43:40.423Z,0.30
2022-10-09T01:43:56.972Z,0.20
2022-10-09T01:44:16.975Z,0.30
2022-10-09T01:44:34.881Z,0.20
2022-10-09T01:44:51.358Z,0.30
2022-10-09T01:45:09.237Z,0.50
2022-10-09T01:45:25.887Z,0.52
2022-10-09T01:45:43.602Z,0.50
2022-10-09T01:46:15.068Z,0.30
2022-10-09T01:46:32.953Z,0.20
2022-10-09T01:46:50.671Z,0.25
2022-10-09T01:47:09.596Z,0.30
2022-10-09T01:47:26.307Z,0.45
2022-10-09T01:47:43.197Z,0.50
2022-10-09T01:47:59.719Z,0.20
2022-10-09T01:48:19.034Z,0.17
2022-10-09T01:48:35.927Z,0.20
2022-10-09T01:48:55.518Z,0.20
2022-10-09T01:49:16.234Z,0.40
2022-10-09T01:49:38.063Z,0.40
2022-10-09T01:49:59.211Z,0.32
2022-10-09T01:50:17.638Z,0.30
2022-10-09T01:50:35.809Z,0.35
2022-10-09T01:50:54.417Z,0.40
2022-10-09T01:51:11.181Z,0.30
2022-10-09T01:51:30.119Z,0.40
2022-10-09T01:51:51.452Z,0.50
2022-10-09T01:52:12.483Z,0.40
2022-10-09T01:52:34.124Z,0.40
2022-10-09T01:52:53.542Z,0.60
2022-10-09T01:53:12.983Z,0.40
2022-10-09T01:53:29.926Z,0.38
2022-10-09T01:53:47.386Z,0.30
2022-10-09T01:54:07.140Z,0.30
2022-10-09T01:54:28.721Z,0.20
2022-10-09T01:54:51.512Z,0.30
2022-10-09T01:55:20.779Z,0.40
2022-10-09T01:55:42.465Z,0.50
2022-10-09T01:56:02.163Z,0.30
2022-10-09T01:56:20.972Z,0.50
2022-10-09T01:56:39.966Z,0.15
2022-10-09T01:56:59.756Z,0.40
2022-10-09T01:57:18.026Z,0.50
2022-10-09T01:57:37.267Z,0.38
2022-10-09T01:57:56.923Z,0.22
2022-10-09T01:58:18.648Z,0.30
2022-10-09T01:58:36.551Z,0.30
2022-10-09T01:58:55.638Z,0.35
2022-10-09T01:59:16.061Z,0.47
2022-10-09T01:59:34.355Z,0.65
2022-10-09T01:59:51.907Z,0.60
2022-10-09T02:00:34.966Z,1.10
2022-10-09T02:00:53.817Z,0.70
2022-10-09T02:01:12.285Z,0.63
2022-10-09T02:01:30.094Z,0.85
2022-10-09T02:01:47.395Z,0.50
2022-10-09T02:02:05.059Z,0.40
2022-10-09T02:02:22.674Z,0.40
2022-10-09T02:02:40.129Z,0.43
2022-10-09T02:02:57.034Z,0.50
2022-10-09T02:03:15.631Z,0.40
2022-10-09T02:03:34.026Z,0.80
2022-10-09T02:03:52.042Z,0.68
2022-10-09T02:04:10.874Z,0.40
2022-10-09T02:04:29.304Z,0.40
2022-10-09T02:04:46.354Z,0.30
2022-10-09T02:05:03.288Z,0.25
2022-10-09T02:05:22.257Z,0.22
2022-10-09T02:05:40.931Z,0.40
2022-10-09T02:05:58.739Z,0.32
2022-10-09T02:06:15.851Z,0.30
2022-10-09T02:06:32.473Z,0.40
2022-10-09T02:06:49.144Z,0.43
2022-10-09T02:07:06.041Z,0.35
2022-10-09T02:07:24.051Z,0.30
2022-10-09T02:07:41.865Z,0.35
2022-10-09T02:07:59.201Z,0.40
2022-10-09T02:08:17.386Z,0.25
2022-10-09T02:08:34.982Z,0.30
2022-10-09T02:08:53.450Z,0.38
2022-10-09T02:09:11.818Z,0.38
2022-10-09T02:09:29.936Z,0.30
2022-10-09T02:09:46.519Z,0.30
2022-10-09T02:10:04.369Z,0.30
2022-10-09T02:10:22.010Z,0.40
2022-10-09T02:10:39.905Z,0.50
2022-10-09T02:10:57.044Z,0.28
2022-10-09T02:11:15.592Z,0.30
2022-10-09T02:11:32.366Z,0.45
2022-10-09T02:11:51.221Z,0.30
2022-10-09T02:12:10.241Z,0.20
2022-10-09T02:12:27.914Z,0.30
2022-10-09T02:12:47.848Z,0.40
2022-10-09T02:13:05.566Z,0.45
2022-10-09T02:13:22.381Z,0.40
2022-10-09T02:13:38.978Z,0.40
2022-10-09T02:13:55.884Z,0.40
2022-10-09T02:14:12.409Z,0.30
2022-10-09T02:14:29.889Z,0.30
2022-10-09T02:14:46.450Z,0.68
2022-10-09T02:15:03.105Z,0.80
2022-10-09T02:15:20.323Z,0.40
2022-10-09T02:15:38.119Z,0.20
2022-10-09T02:15:58.898Z,0.10
2022-10-09T02:16:19.808Z,0.20
2022-10-09T02:16:37.718Z,0.25
2022-10-09T02:16:58.268Z,0.30
2022-10-09T02:17:17.938Z,0.32
2022-10-09T02:17:36.864Z,0.30
2022-10-09T02:17:55.760Z,0.20
2022-10-09T02:18:13.866Z,0.40
2022-10-09T02:18:32.256Z,0.40
2022-10-09T02:18:49.864Z,0.20
2022-10-09T02:19:09.748Z,0.38
2022-10-09T02:19:29.392Z,0.30
2022-10-09T02:19:47.818Z,0.25
2022-10-09T02:20:06.481Z,0.30
2022-10-09T02:20:25.408Z,0.30
2022-10-09T02:20:44.684Z,0.30
2022-10-09T02:21:04.702Z,0.32
2022-10-09T02:21:23.892Z,0.10
2022-10-09T02:21:46.202Z,0.10
2022-10-09T02:22:07.246Z,0.20
2022-10-09T02:22:25.956Z,0.30
2022-10-09T02:22:42.771Z,1.20
2022-10-09T02:23:01.370Z,1.02
2022-10-09T02:23:19.260Z,0.30
2022-10-09T02:23:37.562Z,0.47
2022-10-09T02:23:55.622Z,0.20
2022-10-09T02:24:13.848Z,0.20
2022-10-09T02:24:30.770Z,0.30
2022-10-09T02:24:48.460Z,0.20
2022-10-09T02:25:06.131Z,0.30
2022-10-09T02:25:22.847Z,0.52
2022-10-09T02:25:39.598Z,0.40
2022-10-09T02:25:56.581Z,0.35
2022-10-09T02:26:13.589Z,0.38
2022-10-09T02:26:31.066Z,0.20
2022-10-09T02:26:47.568Z,0.20
2022-10-09T02:27:04.541Z,0.30
2022-10-09T02:27:57.990Z,0.20
2022-10-09T02:28:14.876Z,0.20
2022-10-09T02:28:32.059Z,0.25
2022-10-09T02:28:48.955Z,0.30
2022-10-09T02:29:05.674Z,0.40
2022-10-09T02:29:23.154Z,0.50
2022-10-09T02:29:40.048Z,0.62
2022-10-09T02:29:58.003Z,0.50
2022-10-09T02:30:15.298Z,0.50
2022-10-09T02:30:44.400Z,0.50
2022-10-09T02:31:04.189Z,0.55
2022-10-09T02:31:24.651Z,0.50
2022-10-09T02:31:42.196Z,0.38
2022-10-09T02:31:58.803Z,0.35
2022-10-09T02:32:16.152Z,0.40
2022-10-09T02:32:32.762Z,0.45
2022-10-09T02:32:52.657Z,0.60
2022-10-09T02:33:10.607Z,0.65
2022-10-09T02:33:27.830Z,0.60
2022-10-09T02:33:44.354Z,0.50
2022-10-09T02:34:01.893Z,0.50
2022-10-09T02:34:19.580Z,0.63
2022-10-09T02:34:37.104Z,0.52
2022-10-09T02:34:53.651Z,0.80
2022-10-09T02:35:10.177Z,0.45
2022-10-09T02:35:26.743Z,0.40
2022-10-09T02:35:43.409Z,0.45
2022-10-09T02:36:00.224Z,0.40
2022-10-09T02:36:17.680Z,0.50
2022-10-09T02:36:34.574Z,0.40
2022-10-09T02:36:51.089Z,0.46
2022-10-09T02:37:08.043Z,0.50
2022-10-09T02:37:24.531Z,0.40
2022-10-09T02:37:41.033Z,0.38
2022-10-09T02:37:58.590Z,0.50
2022-10-09T02:38:15.106Z,0.50
2022-10-09T02:38:31.632Z,0.60
2022-10-09T02:38:48.121Z,0.70
2022-10-09T02:39:04.917Z,0.85
2022-10-09T02:39:22.418Z,0.80
2022-10-09T02:39:38.916Z,0.80
2022-10-09T02:39:55.410Z,0.73
2022-10-09T02:40:11.983Z,0.70
2022-10-09T02:40:28.446Z,0.80
2022-10-09T02:40:44.943Z,0.70
2022-10-09T02:41:02.463Z,0.65
2022-10-09T02:41:18.940Z,0.80
2022-10-09T02:41:35.664Z,0.73
2022-10-09T02:41:52.173Z,0.60
2022-10-09T02:42:08.703Z,0.60
2022-10-09T02:42:26.805Z,0.55
2022-10-09T02:42:43.349Z,0.50
2022-10-09T02:43:01.179Z,0.40
2022-10-09T02:43:17.677Z,0.52
2022-10-09T02:43:34.170Z,0.63
2022-10-09T02:43:50.744Z,0.50
2022-10-09T02:44:08.459Z,0.50
2022-10-09T02:44:25.101Z,0.60
2022-10-09T02:44:41.610Z,0.70
2022-10-09T02:44:58.095Z,0.50
2022-10-09T02:45:14.725Z,0.47
2022-10-09T02:45:31.206Z,0.55
2022-10-09T02:45:47.698Z,0.50
2022-10-09T02:46:05.536Z,0.43
2022-10-09T02:46:22.425Z,0.35
2022-10-09T02:46:39.060Z,0.30
2022-10-09T02:46:55.614Z,0.40
2022-10-09T02:47:12.150Z,0.40
2022-10-09T02:47:29.640Z,0.40
2022-10-09T02:47:46.128Z,0.40
2022-10-09T02:48:02.623Z,0.40
2022-10-09T02:48:19.137Z,0.50
2022-10-09T02:48:35.754Z,0.50
2022-10-09T02:48:52.224Z,0.50
2022-10-09T02:49:08.676Z,0.50
2022-10-09T02:49:26.159Z,0.52
2022-10-09T02:49:42.680Z,0.52
2022-10-09T02:49:59.167Z,0.43
2022-10-09T02:50:15.780Z,0.30
2022-10-09T02:50:32.256Z,0.50
2022-10-09T02:50:48.730Z,0.63
2022-10-09T02:51:05.305Z,0.77
2022-10-09T02:51:22.767Z,0.70
2022-10-09T02:51:39.323Z,0.50
2022-10-09T02:51:55.794Z,0.47
2022-10-09T02:52:12.373Z,0.50
2022-10-09T02:52:28.857Z,0.70
2022-10-09T02:52:46.697Z,0.65
2022-10-09T02:53:03.370Z,0.60
2022-10-09T02:53:19.849Z,0.45
2022-10-09T02:53:36.510Z,0.40
2022-10-09T02:53:53.480Z,0.43
2022-10-09T02:54:10.015Z,0.43
2022-10-09T02:54:27.499Z,0.60
2022-10-09T02:54:44.014Z,0.73
2022-10-09T02:55:00.521Z,0.60
2022-10-09T02:55:17.013Z,0.38
2022-10-09T02:55:33.593Z,0.40
2022-10-09T02:55:50.219Z,0.50
2022-10-09T02:56:07.701Z,0.40
2022-10-09T02:56:24.163Z,0.57
2022-10-09T02:56:40.758Z,0.55
2022-10-09T02:56:57.286Z,0.60
2022-10-09T02:57:13.778Z,0.65
2022-10-09T02:57:31.898Z,0.60
2022-10-09T02:57:48.413Z,0.40
2022-10-09T02:58:06.279Z,0.40
2022-10-09T02:58:22.779Z,0.60
2022-10-09T02:58:39.839Z,0.50
2022-10-09T02:58:57.499Z,0.50
2022-10-09T02:59:13.967Z,0.80
2022-10-09T02:59:32.000Z,0.50
2022-10-09T02:59:48.581Z,0.40
2022-10-09T03:00:05.722Z,0.50
2022-10-09T03:00:23.210Z,0.35
2022-10-09T03:00:39.708Z,0.40
2022-10-09T03:00:56.350Z,0.40
2022-10-09T03:01:13.210Z,0.50
2022-10-09T03:01:29.781Z,0.52
2022-10-09T03:01:47.402Z,0.50
2022-10-09T03:02:04.211Z,0.40
2022-10-09T03:02:20.947Z,0.50
2022-10-09T03:02:37.550Z,0.50
2022-10-09T03:02:54.174Z,0.40
2022-10-09T03:03:10.904Z,0.40
2022-10-09T03:03:27.543Z,0.40
2022-10-09T03:03:45.503Z,0.40
2022-10-09T03:04:02.003Z,0.50
2022-10-09T03:04:18.559Z,0.47
2022-10-09T03:04:35.057Z,0.45
2022-10-09T03:04:51.536Z,0.60
2022-10-09T03:05:08.500Z,0.50
2022-10-09T03:05:26.868Z,0.40
2022-10-09T03:05:44.963Z,0.75
2022-10-09T03:06:02.212Z,0.68
2022-10-09T03:06:19.849Z,0.20
2022-10-09T03:06:36.357Z,0.40
2022-10-09T03:06:52.829Z,0.50
2022-10-09T03:07:10.433Z,0.68
2022-10-09T03:07:26.909Z,0.65
2022-10-09T03:07:51.009Z,0.50
2022-10-09T03:08:07.760Z,0.76
2022-10-09T03:08:24.290Z,0.47
2022-10-09T03:08:43.287Z,0.32
2022-10-09T03:08:59.761Z,0.45
2022-10-09T03:09:16.482Z,0.50
2022-10-09T03:09:33.968Z,0.30
2022-10-09T03:09:50.550Z,0.43
2022-10-09T03:10:07.370Z,0.50
2022-10-09T03:10:24.927Z,0.40
2022-10-09T03:10:42.031Z,0.40
2022-10-09T03:10:58.565Z,0.30
2022-10-09T03:11:16.167Z,0.30
2022-10-09T03:11:32.649Z,0.30
2022-10-09T03:11:50.179Z,0.45
2022-10-09T03:12:06.715Z,0.50
2022-10-09T03:12:23.201Z,0.30
2022-10-09T03:12:39.679Z,0.10
2022-10-09T03:12:56.181Z,0.30
2022-10-09T03:13:14.033Z,0.35
2022-10-09T03:13:32.367Z,0.17
2022-10-09T03:13:49.007Z,0.20
2022-10-09T03:14:05.566Z,0.30
2022-10-09T03:14:24.179Z,0.50
2022-10-09T03:14:40.739Z,0.50
2022-10-09T03:14:57.218Z,0.20
2022-10-09T03:15:15.143Z,0.20
2022-10-09T03:15:33.833Z,0.20
2022-10-09T03:15:50.417Z,0.30
2022-10-09T03:16:08.089Z,0.40
2022-10-09T03:16:25.695Z,0.40
2022-10-09T03:16:43.193Z,0.30
2022-10-09T03:16:59.786Z,0.20
2022-10-09T03:17:16.273Z,0.20
2022-10-09T03:17:32.734Z,0.20
2022-10-09T03:17:49.215Z,0.30
2022-10-09T03:18:05.804Z,0.28
2022-10-09T03:18:23.267Z,0.25
2022-10-09T03:18:39.780Z,0.50
2022-10-09T03:18:56.337Z,0.50
2022-10-09T03:19:13.000Z,0.30
2022-10-09T03:19:29.484Z,0.30
2022-10-09T03:19:46.979Z,0.30
2022-10-09T03:20:03.798Z,0.40
2022-10-09T03:20:20.759Z,0.43
2022-10-09T03:20:37.661Z,0.50
2022-10-09T03:20:54.117Z,0.40
2022-10-09T03:21:12.347Z,0.30
2022-10-09T03:21:29.930Z,0.32
2022-10-09T03:21:46.510Z,0.40
2022-10-09T03:22:03.041Z,0.30
2022-10-09T03:22:19.529Z,0.30
2022-10-09T03:22:36.029Z,0.40
2022-10-09T03:22:52.489Z,0.30
2022-10-09T03:23:09.950Z,0.30
2022-10-09T03:23:26.919Z,0.30
2022-10-09T03:23:43.514Z,0.30
2022-10-09T03:24:00.052Z,0.20
2022-10-09T03:24:16.582Z,0.30
2022-10-09T03:24:33.089Z,0.40
2022-10-09T03:24:50.566Z,0.40
2022-10-09T03:25:07.639Z,0.32
2022-10-09T03:25:24.168Z,0.22
2022-10-09T03:25:40.663Z,0.20
2022-10-09T03:25:57.266Z,0.30
2022-10-09T03:26:15.449Z,0.30
2022-10-09T03:26:32.913Z,0.30
2022-10-09T03:26:49.490Z,0.30
2022-10-09T03:27:06.037Z,0.36
2022-10-09T03:27:22.569Z,0.40
2022-10-09T03:27:39.073Z,0.30
2022-10-09T03:27:55.579Z,0.20
2022-10-09T03:28:13.083Z,0.20
2022-10-09T03:28:31.740Z,0.28
2022-10-09T03:28:49.157Z,0.38
2022-10-09T03:29:05.713Z,0.20
2022-10-09T03:29:22.263Z,0.20
2022-10-09T03:29:38.749Z,0.25
2022-10-09T03:29:56.224Z,0.30
2022-10-09T03:30:13.271Z,0.25
2022-10-09T03:30:29.807Z,0.28
2022-10-09T03:30:46.296Z,0.40
2022-10-09T03:31:03.175Z,0.50
2022-10-09T03:31:49.943Z,0.32
2022-10-09T03:31:59.887Z,0.20
2022-10-09T03:32:16.542Z,0.30
2022-10-09T03:32:33.213Z,0.28
2022-10-09T03:32:50.072Z,0.20
2022-10-09T03:33:07.730Z,0.10
2022-10-09T03:33:24.230Z,0.20
2022-10-09T03:33:40.758Z,0.20
2022-10-09T03:33:57.234Z,0.20
2022-10-09T03:34:13.817Z,0.30
2022-10-09T03:34:30.327Z,0.30
2022-10-09T03:34:47.808Z,0.30
2022-10-09T03:35:04.662Z,0.30
2022-10-09T03:35:21.150Z,0.28
2022-10-09T03:35:38.120Z,0.38
2022-10-09T03:35:54.615Z,0.50
2022-10-09T03:36:11.660Z,0.50
2022-10-09T03:36:29.196Z,0.40
2022-10-09T03:36:46.687Z,0.40
2022-10-09T03:37:03.284Z,0.30
2022-10-09T03:37:19.910Z,0.32
2022-10-09T03:37:36.506Z,0.40
2022-10-09T03:37:53.024Z,0.30
2022-10-09T03:38:10.498Z,0.30
2022-10-09T03:38:27.252Z,0.30
2022-10-09T03:38:43.789Z,0.20
2022-10-09T03:39:00.276Z,0.25
2022-10-09T03:39:16.794Z,0.30
2022-10-09T03:39:33.315Z,0.20
2022-10-09T03:39:49.784Z,0.40
2022-10-09T03:40:07.593Z,0.40
2022-10-09T03:40:24.112Z,0.30
2022-10-09T03:40:40.629Z,0.22
2022-10-09T03:40:58.317Z,0.20
2022-10-09T03:41:14.779Z,0.30
2022-10-09T03:41:31.294Z,0.25
2022-10-09T03:41:48.780Z,0.20
2022-10-09T03:42:05.321Z,0.20
2022-10-09T03:42:21.905Z,0.10
2022-10-09T03:42:38.396Z,0.20
2022-10-09T03:42:54.874Z,0.30
2022-10-09T03:43:11.620Z,0.30
2022-10-09T03:43:29.800Z,0.38
2022-10-09T03:43:47.645Z,0.40
2022-10-09T03:44:04.213Z,0.30
2022-10-09T03:44:20.731Z,0.40
2022-10-09T03:44:37.242Z,0.43
2022-10-09T03:44:53.741Z,0.32
2022-10-09T03:45:10.457Z,0.25
2022-10-09T03:45:28.005Z,0.40
2022-10-09T03:45:44.523Z,0.38
2022-10-09T03:46:04.150Z,0.38
2022-10-09T03:46:20.689Z,0.20
2022-10-09T03:46:37.265Z,0.20
2022-10-09T03:46:54.860Z,0.28
2022-10-09T03:47:11.459Z,0.20
2022-10-09T03:48:03.085Z,0.46
2022-10-09T03:48:19.692Z,0.30
2022-10-09T03:48:36.481Z,0.30
2022-10-09T03:48:52.970Z,0.30
2022-10-09T03:49:10.441Z,0.38
2022-10-09T03:49:27.075Z,0.40
2022-10-09T03:49:43.804Z,0.40
2022-10-09T03:50:00.291Z,0.32
2022-10-09T03:50:16.936Z,0.10
2022-10-09T03:50:34.465Z,0.20
2022-10-09T03:50:50.967Z,0.20
2022-10-09T03:51:07.654Z,0.35
2022-10-09T03:51:24.220Z,0.40
2022-10-09T03:51:41.679Z,0.30
2022-10-09T03:51:58.189Z,0.20
2022-10-09T03:52:14.659Z,0.10
2022-10-09T03:52:31.374Z,0.20
2022-10-09T03:52:48.307Z,0.28
2022-10-09T03:53:05.379Z,0.20
2022-10-09T03:53:22.856Z,0.22
2022-10-09T03:53:39.345Z,0.30
2022-10-09T03:53:55.871Z,0.20
2022-10-09T03:54:12.364Z,0.30
2022-10-09T03:54:28.858Z,0.40
2022-10-09T03:54:46.318Z,0.35
2022-10-09T03:55:02.877Z,0.35
2022-10-09T03:55:19.364Z,0.47
2022-10-09T03:55:35.848Z,0.57
2022-10-09T03:55:52.353Z,0.50
2022-10-09T03:56:09.823Z,0.40
2022-10-09T03:56:26.379Z,0.60
2022-10-09T03:56:42.857Z,0.56
2022-10-09T03:56:59.365Z,0.40
2022-10-09T03:57:16.881Z,0.30
2022-10-09T03:57:34.500Z,0.28
2022-10-09T03:57:51.504Z,0.40
2022-10-09T03:58:08.063Z,0.40
2022-10-09T03:58:24.543Z,0.30
2022-10-09T03:58:41.090Z,0.40
2022-10-09T03:58:58.584Z,0.40
2022-10-09T03:59:15.085Z,0.35
2022-10-09T03:59:32.030Z,0.40
2022-10-09T03:59:48.570Z,0.40
2022-10-09T04:00:05.654Z,0.25
2022-10-09T04:00:23.525Z,0.20
2022-10-09T04:00:40.150Z,0.40
2022-10-09T04:00:56.779Z,0.50
2022-10-09T04:01:13.387Z,0.30
2022-10-09T04:01:29.945Z,0.40
2022-10-09T04:01:46.436Z,0.50
2022-10-09T04:02:03.898Z,0.40
2022-10-09T04:02:20.549Z,0.40
2022-10-09T04:02:37.201Z,0.30
2022-10-09T04:02:53.960Z,0.30
2022-10-09T04:03:11.870Z,0.45
2022-10-09T04:03:28.900Z,0.50
2022-10-09T04:03:46.411Z,0.32